Time;durP1;ratioP1;P1;durP2;ratioP2;P2;SDS_P1;SDS_P2;PMS_P1;PMS_P2;Temp;Humidity;BMP_temperature;BMP_pressure;BME280_temperature;BME280_humidity;BME280_pressure;Samples;Min_cycle;Max_cycle;Signal;HPM_P1;HPM_P2
2022/02/27 00:00:47;;;;;;;;;13.00;10.00;;;;;4.22;58.04;101773.28;5111193;27;45250;-68
2022/02/27 00:03:12;;;;;;;;;18.50;12.00;;;;;4.20;58.43;101777.59;5095636;27;45235;-67
2022/02/27 00:05:38;;;;;;;;;23.00;20.00;;;;;4.19;58.62;101768.06;5094178;27;45385;-69
2022/02/27 00:08:03;;;;;;;;;18.75;15.75;;;;;4.19;58.32;101775.00;5093549;27;45351;-68
2022/02/27 00:10:29;;;;;;;;;12.50;10.25;;;;;4.17;58.31;101772.38;5095337;27;45378;-70
2022/02/27 00:12:55;;;;;;;;;13.25;10.00;;;;;4.15;58.38;101776.72;5095908;27;45246;-68
2022/02/27 00:15:20;;;;;;;;;13.75;9.00;;;;;4.15;58.42;101771.50;5095479;27;46268;-69
2022/02/27 00:17:46;;;;;;;;;18.25;14.75;;;;;4.12;58.15;101775.84;5095287;27;45370;-68
2022/02/27 00:20:11;;;;;;;;;10.25;9.50;;;;;4.11;58.82;101771.50;5095659;27;45460;-70
2022/02/27 00:22:38;;;;;;;;;17.75;14.25;;;;;4.08;58.56;101777.53;5093914;27;45640;-69
2022/02/27 00:25:04;;;;;;;;;19.50;17.50;;;;;4.06;58.44;101781.88;5094933;27;46217;-69
2022/02/27 00:27:30;;;;;;;;;11.50;11.25;;;;;4.02;59.16;101782.72;5094743;27;45198;-69
2022/02/27 00:29:55;;;;;;;;;15.00;13.25;;;;;4.01;59.32;101789.66;5094623;27;45528;-67
2022/02/27 00:32:20;;;;;;;;;15.25;11.75;;;;;4.01;59.09;101780.97;5095033;27;45567;-68
2022/02/27 00:34:46;;;;;;;;;6.75;5.25;;;;;3.98;59.12;101788.75;5094362;27;46502;-68
2022/02/27 00:37:12;;;;;;;;;12.25;11.00;;;;;3.99;59.28;101793.09;5095081;27;45245;-67
2022/02/27 00:39:37;;;;;;;;;12.00;11.75;;;;;3.95;59.33;101789.63;5095071;27;45259;-70
2022/02/27 00:42:03;;;;;;;;;10.75;9.50;;;;;3.91;59.54;101790.47;5095063;27;45369;-71
2022/02/27 00:44:29;;;;;;;;;10.00;9.00;;;;;3.91;58.71;101780.91;5094867;27;46448;-68
2022/02/27 00:46:54;;;;;;;;;17.50;13.50;;;;;3.90;59.20;101775.69;5094557;27;49409;-69
2022/02/27 00:49:19;;;;;;;;;13.25;10.50;;;;;3.88;59.31;101788.69;5094798;27;45522;-70
2022/02/27 00:51:45;;;;;;;;;15.50;12.00;;;;;3.85;59.12;101783.47;5095370;27;45613;-69
2022/02/27 00:54:10;;;;;;;;;15.25;10.00;;;;;3.84;59.53;101781.72;5092752;27;47268;-69
2022/02/27 00:56:36;;;;;;;;;11.00;9.00;;;;;3.82;59.35;101775.63;5094540;27;45364;-69
2022/02/27 00:59:03;;;;;;;;;12.25;11.25;;;;;3.81;59.33;101784.31;5094459;27;45322;-67
2022/02/27 01:01:28;;;;;;;;;15.75;10.75;;;;;3.78;59.06;101777.38;5094690;27;45420;-67
2022/02/27 01:03:53;;;;;;;;;12.75;10.50;;;;;3.80;59.25;101779.97;5094031;27;45307;-69
2022/02/27 01:06:19;;;;;;;;;13.00;12.50;;;;;3.78;59.70;101774.75;5093058;27;45286;-68
2022/02/27 01:08:45;;;;;;;;;11.25;9.25;;;;;3.79;59.86;101788.63;5094838;27;45238;-68
2022/02/27 01:11:11;;;;;;;;;13.00;11.00;;;;;3.78;59.15;101786.88;5093312;27;45694;-69
2022/02/27 01:13:37;;;;;;;;;15.25;11.00;;;;;3.76;59.08;101789.50;5094336;27;45335;-71
2022/02/27 01:16:04;;;;;;;;;12.50;10.50;;;;;3.75;58.81;101786.88;5087434;27;46052;-71
2022/02/27 01:18:30;;;;;;;;;11.00;9.25;;;;;3.73;59.64;101783.38;5089030;27;45444;-72
2022/02/27 01:20:56;;;;;;;;;16.75;13.00;;;;;3.74;59.05;101782.53;5088977;27;45419;-70
2022/02/27 01:23:21;;;;;;;;;13.50;12.50;;;;;3.71;59.56;101778.19;5115848;27;46642;-71
2022/02/27 01:25:47;;;;;;;;;11.25;9.75;;;;;3.70;59.32;101781.59;5112935;27;45323;-70
2022/02/27 01:28:12;;;;;;;;;11.00;11.00;;;;;3.70;58.96;101781.59;5094536;27;45455;-71
2022/02/27 01:30:38;;;;;;;;;10.50;10.00;;;;;3.69;59.46;101772.06;5093069;27;45515;-72
2022/02/27 01:33:03;;;;;;;;;11.50;8.25;;;;;3.66;59.08;101774.63;5097670;27;45712;-70
2022/02/27 01:35:28;;;;;;;;;14.75;13.00;;;;;3.65;59.78;101767.69;5097630;27;45222;-69
2022/02/27 01:37:54;;;;;;;;;11.50;8.25;;;;;3.62;59.03;101768.56;5097701;27;45356;-71
2022/02/27 01:40:20;;;;;;;;;10.00;9.75;;;;;3.58;59.25;101758.97;5097902;27;45534;-71
2022/02/27 01:42:45;;;;;;;;;9.75;7.25;;;;;3.59;59.81;101765.94;5097761;27;45318;-71
2022/02/27 01:45:10;;;;;;;;;17.50;11.00;;;;;3.56;59.01;101762.41;5096117;27;45239;-72
2022/02/27 01:47:36;;;;;;;;;10.50;8.00;;;;;3.53;59.07;101752.88;5097429;27;45341;-71
2022/02/27 01:50:04;;;;;;;;;9.75;8.75;;;;;3.53;59.93;101752.00;5097732;27;45453;-71
2022/02/27 01:52:30;;;;;;;;;10.00;9.00;;;;;3.51;59.67;101750.25;5097410;27;46299;-71
2022/02/27 01:54:57;;;;;;;;;5.50;4.75;;;;;3.51;59.58;101749.38;5095133;27;45522;-71
2022/02/27 01:57:23;;;;;;;;;7.25;7.25;;;;;3.49;59.90;101756.31;5095018;27;45562;-69
2022/02/27 01:59:49;;;;;;;;;13.00;9.50;;;;;3.46;59.82;101746.72;5094018;27;45608;-71
2022/02/27 02:02:15;;;;;;;;;9.00;9.00;;;;;3.45;59.07;101751.94;5096254;27;45429;-67
2022/02/27 02:04:41;;;;;;;;;11.25;7.25;;;;;3.44;59.62;101748.47;5097557;27;45365;-70
2022/02/27 02:07:07;;;;;;;;;9.50;8.25;;;;;3.38;60.12;101740.59;5097315;27;45385;-69
2022/02/27 02:09:34;;;;;;;;;11.50;8.75;;;;;3.41;59.46;101745.81;5112969;27;45498;-69
2022/02/27 02:12:00;;;;;;;;;8.00;8.00;;;;;3.36;59.82;101739.72;5097040;27;46353;-69
2022/02/27 02:14:25;;;;;;;;;9.25;8.00;;;;;3.36;60.11;101734.50;5097177;27;45333;-71
2022/02/27 02:16:52;;;;;;;;;12.75;7.75;;;;;3.33;60.04;101740.56;5097387;27;45578;-72
2022/02/27 02:19:20;;;;;;;;;11.50;8.25;;;;;3.32;60.30;101740.56;5096055;27;45472;-71
2022/02/27 02:21:49;;;;;;;;;10.75;8.50;;;;;3.29;59.97;101735.31;5095758;27;46322;-68
2022/02/27 02:24:15;;;;;;;;;8.50;7.25;;;;;3.29;60.14;101735.31;5113031;27;45453;-71
2022/02/27 02:26:43;;;;;;;;;9.25;7.00;;;;;3.27;60.02;101737.03;5095985;27;45346;-69
2022/02/27 02:29:11;;;;;;;;;9.50;9.50;;;;;3.22;59.87;101722.25;5095826;27;45259;-70
2022/02/27 02:31:36;;;;;;;;;8.75;7.50;;;;;3.20;59.46;101723.97;5097154;27;46665;-69
2022/02/27 02:34:04;;;;;;;;;9.50;9.50;;;;;3.20;60.18;101718.78;5097093;27;45321;-69
2022/02/27 02:36:30;;;;;;;;;10.50;7.50;;;;;3.17;60.38;101720.47;5095704;27;45326;-72
2022/02/27 02:38:55;;;;;;;;;8.00;8.00;;;;;3.18;59.74;101717.91;5097216;27;45428;-71
2022/02/27 02:41:20;;;;;;;;;8.50;7.00;;;;;3.18;59.40;101722.22;5095863;27;45914;-72
2022/02/27 02:43:47;;;;;;;;;13.25;7.75;;;;;3.15;59.81;101716.97;5096617;27;45479;-73
2022/02/27 02:46:13;;;;;;;;;6.75;6.25;;;;;3.13;59.71;101717.00;5095107;27;45470;-70
2022/02/27 02:48:38;;;;;;;;;7.50;4.75;;;;;3.13;60.11;101721.31;5096826;27;45496;-72
2022/02/27 02:51:04;;;;;;;;;7.00;6.25;;;;;3.11;59.61;101720.41;5096202;27;46267;-72
2022/02/27 02:53:37;;;;;;;;;10.25;7.75;;;;;3.07;60.64;101720.38;5096534;27;45336;-72
2022/02/27 02:56:05;;;;;;;;;8.50;4.75;;;;;3.05;60.32;101724.69;5096504;27;45346;-71
2022/02/27 02:58:35;;;;;;;;;8.75;8.00;;;;;3.05;60.39;101727.31;5094940;27;45569;-71
2022/02/27 03:01:02;;;;;;;;;8.25;7.50;;;;;3.05;60.42;101723.84;5096282;27;45467;-73
2022/02/27 03:03:28;;;;;;;;;10.50;10.00;;;;;3.03;59.96;101730.75;5096265;27;45424;-68
2022/02/27 03:05:53;;;;;;;;;11.25;7.75;;;;;3.01;60.55;101725.53;5096581;27;45245;-71
2022/02/27 03:08:19;;;;;;;;;8.50;5.25;;;;;3.00;60.78;101720.34;5097038;27;45175;-72
2022/02/27 03:10:44;;;;;;;;;10.75;9.00;;;;;2.99;59.89;101723.78;5096084;27;46026;-71
2022/02/27 03:13:10;;;;;;;;;7.50;7.50;;;;;2.97;60.15;101718.56;5096397;27;45230;-72
2022/02/27 03:15:37;;;;;;;;;9.25;8.50;;;;;2.95;59.84;101728.06;5096879;27;45339;-71
2022/02/27 03:18:02;;;;;;;;;13.25;8.00;;;;;2.93;59.88;101727.19;5096921;27;45244;-69
2022/02/27 03:20:27;;;;;;;;;6.50;6.25;;;;;2.94;60.50;101721.13;5096175;27;45483;-72
2022/02/27 03:22:53;;;;;;;;;10.00;8.00;;;;;2.92;60.22;101726.34;5096506;27;45288;-72
2022/02/27 03:25:18;;;;;;;;;17.00;8.25;;;;;2.88;60.64;101721.97;5096848;27;45387;-73
2022/02/27 03:27:44;;;;;;;;;10.00;7.75;;;;;2.90;60.29;101719.34;5096617;27;45239;-73
2022/02/27 03:30:09;;;;;;;;;10.75;8.50;;;;;2.88;59.94;101719.34;5096552;27;46435;-71
2022/02/27 03:32:35;;;;;;;;;7.75;6.25;;;;;2.86;60.04;101702.88;5094603;27;45427;-71
2022/02/27 03:35:00;;;;;;;;;10.75;8.25;;;;;2.82;61.10;101708.91;5096435;27;45332;-70
2022/02/27 03:37:26;;;;;;;;;9.00;8.00;;;;;2.83;60.71;101715.84;5096699;27;45536;-70
2022/02/27 03:39:52;;;;;;;;;7.75;5.00;;;;;2.81;60.46;101711.47;5096397;27;45478;-73
2022/02/27 03:42:17;;;;;;;;;12.00;8.25;;;;;2.78;61.05;101710.59;5095556;27;45891;-71
2022/02/27 03:44:43;;;;;;;;;11.50;6.75;;;;;2.77;60.43;101713.19;5095952;27;45353;-71
2022/02/27 03:47:08;;;;;;;;;8.75;5.25;;;;;2.74;60.63;101706.22;5096099;27;45429;-72
2022/02/27 03:49:34;;;;;;;;;10.00;9.00;;;;;2.77;59.99;101720.97;5094049;27;46079;-75
2022/02/27 03:52:00;;;;;;;;;10.50;8.00;;;;;2.72;60.06;101713.13;5095729;27;45341;-67
2022/02/27 03:54:25;;;;;;;;;7.75;7.75;;;;;2.73;60.33;101727.84;5095959;27;45340;-69
2022/02/27 03:56:50;;;;;;;;;10.00;6.75;;;;;2.71;61.23;101726.97;5094533;27;45407;-71
2022/02/27 03:59:16;;;;;;;;;6.25;5.50;;;;;2.70;60.87;101727.81;5095336;27;45338;-68
2022/02/27 04:01:43;;;;;;;;;13.25;10.75;;;;;2.70;61.35;101730.41;5095674;27;45342;-67
2022/02/27 04:04:08;;;;;;;;;6.75;4.25;;;;;2.68;61.00;101734.72;5095938;27;45436;-69
2022/02/27 04:06:33;;;;;;;;;8.75;6.00;;;;;2.67;60.69;101737.31;5094346;27;45325;-72
2022/02/27 04:08:59;;;;;;;;;8.00;5.00;;;;;2.65;60.83;101729.50;5095290;27;45399;-72
2022/02/27 04:11:24;;;;;;;;;17.00;15.00;;;;;2.62;61.50;101732.06;5095346;27;45359;-72
2022/02/27 04:13:50;;;;;;;;;8.25;5.75;;;;;2.60;61.10;101733.78;5095471;27;45351;-70
2022/02/27 04:16:15;;;;;;;;;9.75;5.00;;;;;2.60;60.73;101738.97;5095431;27;45709;-69
2022/02/27 04:18:40;;;;;;;;;9.75;6.25;;;;;2.58;61.09;101730.28;5095199;27;45653;-71
2022/02/27 04:21:06;;;;;;;;;7.75;7.75;;;;;2.58;60.96;101727.69;5095113;27;45852;-69
2022/02/27 04:23:32;;;;;;;;;11.25;9.00;;;;;2.55;61.66;101722.47;5095419;27;45373;-68
2022/02/27 04:25:57;;;;;;;;;13.00;9.25;;;;;2.51;61.30;101721.53;5095435;27;45396;-69
2022/02/27 04:28:22;;;;;;;;;8.00;5.75;;;;;2.52;61.76;101719.81;5094216;27;48124;-73
2022/02/27 04:30:48;;;;;;;;;10.00;9.00;;;;;2.50;61.59;101726.72;5093909;27;45317;-72
2022/02/27 04:33:13;;;;;;;;;8.75;7.75;;;;;2.48;61.49;101732.78;5094965;27;45395;-69
2022/02/27 04:35:39;;;;;;;;;8.75;7.00;;;;;2.45;61.74;101726.66;5096189;27;45574;-69
2022/02/27 04:38:04;;;;;;;;;9.75;6.25;;;;;2.42;61.30;101727.50;5094995;27;45579;-72
2022/02/27 04:40:33;;;;;;;;;7.75;7.00;;;;;2.43;61.74;101729.25;5096121;27;45340;-71
2022/02/27 04:42:59;;;;;;;;;9.00;9.00;;;;;2.41;61.32;101728.38;5095053;27;45344;-68
2022/02/27 04:45:24;;;;;;;;;7.50;5.25;;;;;2.39;61.88;101726.59;5095466;27;45227;-73
2022/02/27 04:47:50;;;;;;;;;6.00;6.00;;;;;2.39;62.25;101726.59;5094804;27;45443;-70
2022/02/27 04:50:15;;;;;;;;;8.00;7.00;;;;;2.38;61.71;101725.72;5095315;27;45301;-70
2022/02/27 04:52:40;;;;;;;;;10.75;8.00;;;;;2.36;62.22;101726.53;5096995;27;45332;-72
2022/02/27 04:55:07;;;;;;;;;9.25;8.25;;;;;2.34;61.55;101729.13;5098863;27;45655;-73
2022/02/27 04:57:32;;;;;;;;;8.75;8.75;;;;;2.32;61.64;101721.31;5097899;27;45490;-72
2022/02/27 04:59:58;;;;;;;;;9.00;7.50;;;;;2.32;61.81;101728.25;5097147;27;45365;-70
2022/02/27 05:02:23;;;;;;;;;8.00;7.00;;;;;2.29;62.53;101721.28;5099032;27;45965;-70
2022/02/27 05:04:48;;;;;;;;;10.00;8.25;;;;;2.29;62.16;101726.47;5098764;27;46138;-72
2022/02/27 05:07:14;;;;;;;;;9.00;5.00;;;;;2.27;62.01;101725.59;5098212;27;46120;-70
2022/02/27 05:09:39;;;;;;;;;10.00;7.00;;;;;2.26;61.74;101725.56;5096685;27;45669;-72
2022/02/27 05:12:05;;;;;;;;;9.50;6.75;;;;;2.24;62.47;101715.16;5098287;27;45251;-70
2022/02/27 05:14:30;;;;;;;;;7.75;5.25;;;;;2.23;62.41;101721.19;5098931;27;45269;-68
2022/02/27 05:16:56;;;;;;;;;10.25;7.50;;;;;2.17;61.99;101715.94;5098322;27;45895;-71
2022/02/27 05:19:21;;;;;;;;;7.50;4.75;;;;;2.18;62.09;101722.88;5098220;27;45424;-71
2022/02/27 05:21:46;;;;;;;;;8.00;6.75;;;;;2.17;62.51;101732.41;5098284;27;45306;-69
2022/02/27 05:24:12;;;;;;;;;14.00;11.00;;;;;2.16;61.63;101719.38;5097942;27;45404;-70
2022/02/27 05:26:37;;;;;;;;;9.75;7.00;;;;;2.15;62.30;101725.44;5097952;27;45377;-67
2022/02/27 05:29:04;;;;;;;;;7.25;6.75;;;;;2.11;62.92;101719.31;5097877;27;45362;-72
2022/02/27 05:31:30;;;;;;;;;6.50;5.00;;;;;2.09;62.28;101715.81;5098439;27;45252;-71
2022/02/27 05:33:55;;;;;;;;;7.00;7.00;;;;;2.08;62.78;101719.25;5098553;27;45620;-71
2022/02/27 05:36:20;;;;;;;;;4.50;4.50;;;;;2.06;62.90;101723.56;5097639;27;46455;-69
2022/02/27 05:38:46;;;;;;;;;7.50;6.50;;;;;2.04;62.93;101725.25;5097799;27;45190;-73
2022/02/27 05:41:11;;;;;;;;;8.50;7.00;;;;;2.03;62.62;101719.22;5098057;27;45404;-72
2022/02/27 05:43:37;;;;;;;;;9.00;8.50;;;;;2.01;62.40;101705.34;5098299;27;45361;-70
2022/02/27 05:46:02;;;;;;;;;9.00;6.75;;;;;2.00;62.94;101703.59;5097625;27;46545;-72
2022/02/27 05:48:28;;;;;;;;;11.00;5.00;;;;;1.95;63.13;101699.19;5097701;27;45294;-72
2022/02/27 05:50:53;;;;;;;;;11.75;9.00;;;;;1.93;63.07;101690.50;5097185;27;45877;-71
2022/02/27 05:53:19;;;;;;;;;10.00;5.50;;;;;1.90;62.68;101691.38;5097709;27;45416;-69
2022/02/27 05:55:45;;;;;;;;;10.00;6.50;;;;;1.91;62.52;101687.91;5097140;27;46279;-71
2022/02/27 05:58:10;;;;;;;;;9.00;8.00;;;;;1.90;62.62;101697.41;5095877;27;45472;-71
2022/02/27 06:00:35;;;;;;;;;10.75;7.00;;;;;1.89;63.13;101700.00;5097355;27;45291;-71
2022/02/27 06:03:01;;;;;;;;;8.00;8.00;;;;;1.86;62.61;101703.41;5097601;27;45481;-68
2022/02/27 06:05:26;;;;;;;;;11.25;7.00;;;;;1.82;62.98;101703.34;5095323;27;46169;-72
2022/02/27 06:07:52;;;;;;;;;5.00;5.00;;;;;1.81;62.80;101697.28;5097461;27;45371;-72
2022/02/27 06:10:17;;;;;;;;;6.25;6.25;;;;;1.78;62.58;101696.38;5095488;27;45365;-72
2022/02/27 06:12:50;;;;;;;;;8.00;3.00;;;;;1.78;62.65;101706.75;5096054;27;45309;-71
2022/02/27 06:15:16;;;;;;;;;10.50;7.75;;;;;1.78;62.94;101706.75;5096900;27;46212;-71
2022/02/27 06:17:42;;;;;;;;;9.75;7.25;;;;;1.74;63.21;101698.94;5096010;27;45413;-72
2022/02/27 06:20:08;;;;;;;;;9.00;7.75;;;;;1.73;63.08;101704.09;5097243;27;45151;-71
2022/02/27 06:22:39;;;;;;;;;8.00;8.00;;;;;1.72;63.50;101699.75;5097090;27;45431;-72
2022/02/27 06:25:04;;;;;;;;;10.25;5.00;;;;;1.71;62.87;101701.47;5096958;27;48432;-72
2022/02/27 06:27:30;;;;;;;;;10.00;7.00;;;;;1.70;63.42;101704.03;5097339;27;45254;-70
2022/02/27 06:29:55;;;;;;;;;8.00;6.00;;;;;1.66;62.81;101703.13;5097218;27;45269;-72
2022/02/27 06:32:20;;;;;;;;;7.25;7.00;;;;;1.65;62.75;101700.50;5097317;27;45283;-72
2022/02/27 06:34:46;;;;;;;;;7.25;7.25;;;;;1.66;63.14;101707.44;5097192;27;45893;-72
2022/02/27 06:37:11;;;;;;;;;5.25;1.00;;;;;1.65;62.82;101700.50;5096179;27;45281;-69
2022/02/27 06:39:36;;;;;;;;;9.50;8.00;;;;;1.64;62.83;101703.94;5097108;27;45225;-71
2022/02/27 06:42:02;;;;;;;;;6.50;6.50;;;;;1.61;63.61;101694.41;5096293;27;45510;-71
2022/02/27 06:44:28;;;;;;;;;8.50;8.00;;;;;1.60;63.08;101690.94;5096357;27;46154;-71
2022/02/27 06:46:53;;;;;;;;;7.00;5.00;;;;;1.60;63.62;101690.09;5097322;27;45249;-71
2022/02/27 06:49:18;;;;;;;;;7.50;5.00;;;;;1.59;63.73;101689.19;5097412;27;46236;-69
2022/02/27 06:51:44;;;;;;;;;6.50;5.25;;;;;1.59;63.57;101685.72;5098025;27;45414;-69
2022/02/27 06:54:10;;;;;;;;;7.75;5.25;;;;;1.62;63.57;101690.09;5097318;27;46203;-72
2022/02/27 06:56:35;;;;;;;;;13.00;6.50;;;;;1.63;63.35;101681.47;5095862;27;45796;-71
2022/02/27 06:59:00;;;;;;;;;11.00;8.00;;;;;1.64;63.24;101689.28;5095896;27;45505;-71
2022/02/27 07:01:26;;;;;;;;;8.75;7.75;;;;;1.67;63.98;101691.03;5096948;27;45445;-70
2022/02/27 07:03:51;;;;;;;;;9.75;5.50;;;;;1.69;63.10;101682.44;5096470;27;45513;-69
2022/02/27 07:06:17;;;;;;;;;7.00;5.50;;;;;1.71;63.01;101688.50;5096746;27;45309;-73
2022/02/27 07:08:42;;;;;;;;;10.75;7.25;;;;;1.74;62.89;101690.25;5097471;27;45527;-72
2022/02/27 07:11:08;;;;;;;;;9.50;4.75;;;;;1.69;62.93;101673.75;5097086;27;45563;-72
2022/02/27 07:13:33;;;;;;;;;7.50;5.25;;;;;1.72;62.58;101685.06;5096866;27;47040;-70
2022/02/27 07:15:58;;;;;;;;;8.50;7.75;;;;;1.76;62.92;101698.94;5096536;27;45233;-72
2022/02/27 07:18:24;;;;;;;;;7.00;7.00;;;;;1.79;62.74;101696.38;5096998;27;45753;-72
2022/02/27 07:20:49;;;;;;;;;11.00;7.00;;;;;1.83;63.68;101692.13;5098798;27;45491;-71
2022/02/27 07:23:15;;;;;;;;;8.25;5.50;;;;;1.87;62.96;101704.28;5096210;27;46256;-71
2022/02/27 07:25:40;;;;;;;;;8.00;7.00;;;;;1.94;62.98;101707.81;5096119;27;45218;-70
2022/02/27 07:28:05;;;;;;;;;9.00;8.00;;;;;1.97;62.52;101706.16;5096175;27;45307;-68
2022/02/27 07:30:31;;;;;;;;;8.75;8.25;;;;;2.00;62.82;101714.00;5096532;27;45230;-68
2022/02/27 07:32:56;;;;;;;;;5.25;5.25;;;;;2.01;61.94;101702.75;5094207;27;46845;-70
2022/02/27 07:35:22;;;;;;;;;8.25;6.00;;;;;2.05;61.83;101706.25;5094266;27;45230;-69
2022/02/27 07:37:47;;;;;;;;;9.75;6.00;;;;;2.02;62.42;101688.94;5094398;27;45732;-71
2022/02/27 07:40:13;;;;;;;;;6.75;5.00;;;;;2.09;62.16;101699.38;5111921;27;45277;-69
2022/02/27 07:42:38;;;;;;;;;7.75;6.00;;;;;2.09;61.75;101692.47;5095736;27;45302;-68
2022/02/27 07:45:04;;;;;;;;;9.00;4.00;;;;;2.17;61.94;101702.94;5096088;27;45345;-69
2022/02/27 07:47:30;;;;;;;;;5.25;5.25;;;;;2.17;61.21;101700.34;5094781;27;45558;-71
2022/02/27 07:49:56;;;;;;;;;8.00;5.00;;;;;2.23;61.42;101703.03;5094580;27;45461;-69
2022/02/27 07:52:21;;;;;;;;;8.75;6.00;;;;;2.28;60.82;101708.28;5098447;27;45670;-69
2022/02/27 07:54:46;;;;;;;;;8.00;7.00;;;;;2.30;60.89;101715.22;5094197;27;45332;-70
2022/02/27 07:57:12;;;;;;;;;7.25;6.50;;;;;2.34;61.76;101719.59;5094023;27;45429;-70
2022/02/27 07:59:37;;;;;;;;;7.50;7.00;;;;;2.36;61.70;101714.44;5094425;27;45378;-71
2022/02/27 08:02:03;;;;;;;;;6.00;5.50;;;;;2.39;61.56;101717.09;5096160;27;47591;-73
2022/02/27 08:04:29;;;;;;;;;9.50;8.50;;;;;2.42;61.17;101709.34;5094505;27;45473;-67
2022/02/27 08:06:54;;;;;;;;;8.75;5.25;;;;;2.47;61.72;101710.25;5111403;27;45312;-72
2022/02/27 08:09:20;;;;;;;;;8.75;8.00;;;;;2.53;60.68;101708.59;5095573;27;45326;-74
2022/02/27 08:11:45;;;;;;;;;10.50;6.25;;;;;2.57;60.57;101718.16;5096327;27;45432;-72
2022/02/27 08:14:11;;;;;;;;;8.50;5.50;;;;;2.60;60.91;101718.19;5095599;27;45327;-71
2022/02/27 08:16:36;;;;;;;;;6.25;4.75;;;;;2.67;60.14;101724.34;5095952;27;45340;-72
2022/02/27 08:19:01;;;;;;;;;13.00;11.00;;;;;2.72;60.46;101726.09;5095551;27;45465;-72
2022/02/27 08:21:27;;;;;;;;;8.75;8.00;;;;;2.74;60.07;101714.00;5095120;27;45388;-71
2022/02/27 08:23:52;;;;;;;;;9.50;8.00;;;;;2.77;60.33;101713.19;5095176;27;45378;-73
2022/02/27 08:26:18;;;;;;;;;11.00;8.00;;;;;2.87;60.51;101729.72;5093970;27;45322;-72
2022/02/27 08:28:43;;;;;;;;;9.00;6.00;;;;;2.91;60.09;101734.09;5098837;27;45578;-71
2022/02/27 08:31:09;;;;;;;;;8.75;5.25;;;;;2.94;59.21;101731.53;5098781;27;45357;-70
2022/02/27 08:33:34;;;;;;;;;8.00;4.00;;;;;2.98;59.18;101727.25;5097749;27;45403;-72
2022/02/27 08:36:00;;;;;;;;;5.00;5.00;;;;;3.05;59.51;101735.09;5099543;27;45309;-71
2022/02/27 08:38:26;;;;;;;;;8.75;5.75;;;;;3.06;58.63;101729.03;5097871;27;45413;-69
2022/02/27 08:40:52;;;;;;;;;6.25;6.25;;;;;3.14;57.89;101734.34;5098621;27;46074;-69
2022/02/27 08:43:20;;;;;;;;;8.75;5.50;;;;;3.11;58.48;101718.69;5098722;27;45403;-72
2022/02/27 08:45:46;;;;;;;;;9.25;5.25;;;;;3.29;58.24;101736.22;5098782;27;45255;-69
2022/02/27 08:48:11;;;;;;;;;7.25;4.00;;;;;3.35;57.95;101728.47;5099164;27;45238;-71
2022/02/27 08:50:36;;;;;;;;;4.00;3.50;;;;;3.39;56.62;101731.94;5098861;27;46482;-71
2022/02/27 08:53:02;;;;;;;;;5.00;4.00;;;;;3.42;57.82;101737.16;5098242;27;45181;-69
2022/02/27 08:55:29;;;;;;;;;8.75;8.50;;;;;3.50;57.00;101729.44;5098742;27;45494;-71
2022/02/27 08:57:54;;;;;;;;;9.00;7.00;;;;;3.57;56.93;101733.81;5099201;27;45503;-70
2022/02/27 09:00:20;;;;;;;;;4.50;4.50;;;;;3.67;57.29;101739.09;5098750;27;45381;-72
2022/02/27 09:02:47;;;;;;;;;4.00;4.00;;;;;3.72;56.71;101738.28;5097151;27;45352;-71
2022/02/27 09:05:13;;;;;;;;;7.50;4.25;;;;;3.70;55.97;101724.34;5098505;27;45294;-71
2022/02/27 09:07:38;;;;;;;;;6.00;5.00;;;;;3.84;56.60;101752.25;5098331;27;45514;-70
2022/02/27 09:10:05;;;;;;;;;10.00;5.25;;;;;3.90;56.51;101747.06;5098146;27;46129;-73
2022/02/27 09:12:31;;;;;;;;;10.00;6.00;;;;;3.98;56.18;101753.19;5098225;27;45777;-70
2022/02/27 09:14:57;;;;;;;;;10.00;7.00;;;;;4.06;56.54;101755.81;5097901;27;45341;-72
2022/02/27 09:17:23;;;;;;;;;10.50;5.25;;;;;4.13;55.37;101760.19;5098003;27;45230;-70
2022/02/27 09:19:49;;;;;;;;;6.75;6.50;;;;;4.18;55.76;101753.28;5098093;27;45437;-72
2022/02/27 09:22:15;;;;;;;;;5.00;5.00;;;;;4.23;54.71;101742.91;5098766;27;45552;-68
2022/02/27 09:24:40;;;;;;;;;6.75;6.75;;;;;4.27;55.12;101739.44;5098791;27;45443;-73
2022/02/27 09:27:06;;;;;;;;;14.00;7.50;;;;;4.37;54.75;101748.19;5098123;27;45604;-70
2022/02/27 09:29:32;;;;;;;;;6.00;6.00;;;;;4.44;54.91;101751.69;5097777;27;46203;-74
2022/02/27 09:31:57;;;;;;;;;3.00;3.00;;;;;4.48;54.01;101740.41;5096044;27;45402;-73
2022/02/27 09:34:23;;;;;;;;;7.25;7.25;;;;;4.51;54.71;101737.81;5097743;27;45312;-71
2022/02/27 09:36:49;;;;;;;;;13.25;11.00;;;;;4.58;54.49;101730.91;5098021;27;45242;-70
2022/02/27 09:39:15;;;;;;;;;6.25;5.25;;;;;4.59;53.57;101730.88;5096444;27;45485;-73
2022/02/27 09:41:40;;;;;;;;;6.00;6.00;;;;;4.69;53.62;101734.41;5098320;27;45317;-71
2022/02/27 09:44:08;;;;;;;;;16.75;13.50;;;;;4.74;53.28;101743.09;5096208;27;45327;-69
2022/02/27 09:46:34;;;;;;;;;9.75;6.25;;;;;4.79;53.51;101738.78;5097786;27;45416;-68
2022/02/27 09:48:59;;;;;;;;;8.00;7.00;;;;;4.90;54.16;101748.34;5097854;27;45439;-69
2022/02/27 09:51:25;;;;;;;;;6.25;5.25;;;;;4.97;52.90;101737.97;5097721;27;45404;-73
2022/02/27 09:53:53;;;;;;;;;7.75;5.00;;;;;5.04;53.00;101727.53;5097782;27;45393;-69
2022/02/27 09:56:19;;;;;;;;;4.25;4.25;;;;;5.12;52.72;101729.25;5096670;27;45495;-70
2022/02/27 09:58:44;;;;;;;;;8.50;6.75;;;;;5.20;52.90;101731.00;5097230;27;46275;-72
2022/02/27 10:01:12;;;;;;;;;5.00;5.00;;;;;5.25;52.16;101729.28;5098066;27;45188;-71
2022/02/27 10:03:41;;;;;;;;;11.00;5.50;;;;;5.30;52.75;101724.94;5096378;27;45193;-72
2022/02/27 10:06:11;;;;;;;;;8.75;7.00;;;;;5.39;52.55;101726.69;5097914;27;45593;-71
2022/02/27 10:08:48;;;;;;;;;8.75;5.75;;;;;5.50;51.73;101724.06;5097009;27;45328;-71
2022/02/27 10:11:18;;;;;;;;;6.25;5.50;;;;;5.56;51.94;101713.63;5097356;27;45295;-68
2022/02/27 10:13:53;;;;;;;;;15.00;8.00;;;;;5.66;51.32;101725.78;5097841;27;45467;-73
2022/02/27 10:16:25;;;;;;;;;8.25;8.00;;;;;5.73;51.65;101731.88;5097332;27;45321;-74
2022/02/27 10:18:54;;;;;;;;;8.00;7.00;;;;;5.81;50.78;101729.25;5097326;27;45508;-72
2022/02/27 10:21:26;;;;;;;;;8.75;6.75;;;;;5.88;52.06;101722.28;5097352;27;45335;-74
2022/02/27 10:23:59;;;;;;;;;6.75;6.75;;;;;5.97;51.00;101730.94;5095864;27;45342;-68
2022/02/27 10:26:28;;;;;;;;;17.00;15.00;;;;;6.05;51.15;101725.75;5097507;27;45386;-72
2022/02/27 10:29:21;;;;;;;;;5.50;5.50;;;;;6.12;50.87;101723.97;5095738;27;47212;-74
2022/02/27 10:31:49;;;;;;;;;7.75;7.75;;;;;6.20;50.32;101730.03;5096801;27;45397;-72
2022/02/27 10:34:17;;;;;;;;;12.75;7.75;;;;;6.27;49.75;101720.44;5097662;27;45376;-72
2022/02/27 10:37:09;;;;;;;;;10.50;8.25;;;;;6.36;50.37;101727.38;5097669;27;45208;-68
2022/02/27 10:39:52;;;;;;;;;6.75;6.75;;;;;6.41;50.30;101725.63;5092922;27;47361;-72
2022/02/27 10:42:30;;;;;;;;;8.00;6.00;;;;;6.54;50.86;101721.19;5097171;27;45348;-73
2022/02/27 10:45:00;;;;;;;;;9.00;6.50;;;;;6.66;49.80;101723.75;5097034;27;45290;-70
2022/02/27 10:47:29;;;;;;;;;9.25;8.00;;;;;6.76;49.47;101721.97;5095311;27;45335;-69
2022/02/27 10:49:56;;;;;;;;;6.00;5.75;;;;;6.82;49.63;101726.28;5094411;27;47050;-69
2022/02/27 10:52:28;;;;;;;;;13.50;8.50;;;;;6.94;49.29;101717.50;5096212;27;45339;-69
2022/02/27 10:55:07;;;;;;;;;5.75;5.75;;;;;7.05;48.78;101714.81;5096233;27;45344;-69
2022/02/27 10:57:44;;;;;;;;;9.75;8.75;;;;;7.16;48.94;101721.69;5096254;27;45518;-68
2022/02/27 11:00:14;;;;;;;;;8.25;8.25;;;;;7.25;47.92;101719.88;5094429;27;47143;-68
2022/02/27 11:02:43;;;;;;;;;14.00;9.00;;;;;7.36;47.50;101719.81;5096013;27;45295;-67
2022/02/27 11:05:12;;;;;;;;;10.25;8.00;;;;;7.43;47.67;101724.09;5096056;27;45950;-68
2022/02/27 11:07:42;;;;;;;;;9.25;6.75;;;;;7.51;48.04;101717.03;5095962;27;45264;-68
2022/02/27 11:10:10;;;;;;;;;10.25;7.75;;;;;7.56;46.64;101719.63;5095497;27;46721;-68
2022/02/27 11:12:37;;;;;;;;;9.50;7.25;;;;;7.58;46.05;101718.72;5095653;27;45351;-67
2022/02/27 11:15:05;;;;;;;;;8.75;8.00;;;;;7.54;44.80;101722.25;5094276;27;45349;-69
2022/02/27 11:17:31;;;;;;;;;6.50;6.00;;;;;7.59;46.72;101725.69;5096132;27;45506;-68
2022/02/27 11:19:59;;;;;;;;;11.75;9.00;;;;;7.72;47.48;101722.97;5095636;27;46995;-67
2022/02/27 11:22:25;;;;;;;;;8.75;7.00;;;;;7.80;46.99;101722.88;5093791;27;45748;-68
2022/02/27 11:24:51;;;;;;;;;8.00;7.50;;;;;7.90;47.00;101724.53;5095782;27;45386;-67